sensor_id;sensor_type;location;lat;lon;timestamp;P1;durP1;ratioP1;P2;durP2;ratioP2
32236;SDS011;18726;44.732;10.550;2024-03-23T00:54:03;13.95;;;11.23;;
32236;SDS011;18726;44.732;10.550;2024-03-23T00:57:07;16.83;;;14.93;;
32236;SDS011;18726;44.732;10.550;2024-03-23T01:00:11;17.17;;;12.98;;
32236;SDS011;18726;44.732;10.550;2024-03-23T01:03:15;17.20;;;13.88;;
32236;SDS011;18726;44.732;10.550;2024-03-23T01:06:18;19.42;;;14.43;;
32236;SDS011;18726;44.732;10.550;2024-03-23T01:09:22;11.65;;;10.55;;
32236;SDS011;18726;44.732;10.550;2024-03-23T01:12:27;14.25;;;12.85;;
32236;SDS011;18726;44.732;10.550;2024-03-23T01:15:31;19.92;;;15.38;;
32236;SDS011;18726;44.732;10.550;2024-03-23T01:18:35;15.30;;;13.80;;
32236;SDS011;18726;44.732;10.550;2024-03-23T01:21:39;14.23;;;12.73;;
32236;SDS011;18726;44.732;10.550;2024-03-23T01:24:42;14.70;;;12.85;;
32236;SDS011;18726;44.732;10.550;2024-03-23T01:27:46;17.83;;;14.10;;
32236;SDS011;18726;44.732;10.550;2024-03-23T01:31:10;15.80;;;14.15;;
32236;SDS011;18726;44.732;10.550;2024-03-23T01:34:16;21.05;;;14.40;;
32236;SDS011;18726;44.732;10.550;2024-03-23T01:37:20;12.00;;;10.77;;
32236;SDS011;18726;44.732;10.550;2024-03-23T01:40:24;17.73;;;15.07;;
32236;SDS011;18726;44.732;10.550;2024-03-23T01:43:28;19.30;;;15.40;;
32236;SDS011;18726;44.732;10.550;2024-03-23T01:46:40;17.77;;;15.23;;
32236;SDS011;18726;44.732;10.550;2024-03-23T01:49:48;17.33;;;13.73;;
32236;SDS011;18726;44.732;10.550;2024-03-23T01:52:53;23.52;;;15.05;;
32236;SDS011;18726;44.732;10.550;2024-03-23T01:55:57;19.48;;;15.20;;
32236;SDS011;18726;44.732;10.550;2024-03-23T01:59:05;19.77;;;15.25;;
32236;SDS011;18726;44.732;10.550;2024-03-23T02:02:09;19.10;;;15.55;;
32236;SDS011;18726;44.732;10.550;2024-03-23T02:05:12;15.35;;;13.30;;
32236;SDS011;18726;44.732;10.550;2024-03-23T02:08:17;17.52;;;14.07;;
32236;SDS011;18726;44.732;10.550;2024-03-23T02:11:23;19.02;;;16.13;;
32236;SDS011;18726;44.732;10.550;2024-03-23T02:14:27;19.55;;;14.48;;
32236;SDS011;18726;44.732;10.550;2024-03-23T02:17:30;17.63;;;15.30;;
32236;SDS011;18726;44.732;10.550;2024-03-23T02:20:35;19.40;;;14.55;;
32236;SDS011;18726;44.732;10.550;2024-03-23T02:23:39;15.93;;;14.30;;
32236;SDS011;18726;44.732;10.550;2024-03-23T02:26:43;17.63;;;15.38;;
32236;SDS011;18726;44.732;10.550;2024-03-23T02:29:47;17.15;;;14.43;;
32236;SDS011;18726;44.732;10.550;2024-03-23T02:32:50;17.00;;;15.20;;
32236;SDS011;18726;44.732;10.550;2024-03-23T02:35:55;17.40;;;13.52;;
32236;SDS011;18726;44.732;10.550;2024-03-23T02:39:00;18.50;;;15.75;;
32236;SDS011;18726;44.732;10.550;2024-03-23T02:42:03;19.38;;;15.93;;
32236;SDS011;18726;44.732;10.550;2024-03-23T02:45:07;16.63;;;14.25;;
32236;SDS011;18726;44.732;10.550;2024-03-23T02:48:11;20.50;;;15.55;;
32236;SDS011;18726;44.732;10.550;2024-03-23T02:51:14;16.13;;;14.45;;
32236;SDS011;18726;44.732;10.550;2024-03-23T02:54:18;18.17;;;13.85;;
32236;SDS011;18726;44.732;10.550;2024-03-23T02:57:21;15.95;;;13.82;;
32236;SDS011;18726;44.732;10.550;2024-03-23T03:00:25;20.50;;;15.70;;
32236;SDS011;18726;44.732;10.550;2024-03-23T03:03:28;17.75;;;15.85;;
32236;SDS011;18726;44.732;10.550;2024-03-23T03:06:31;17.70;;;15.50;;
32236;SDS011;18726;44.732;10.550;2024-03-23T03:13:39;17.15;;;14.20;;
32236;SDS011;18726;44.732;10.550;2024-03-23T03:35:03;16.10;;;14.40;;
32236;SDS011;18726;44.732;10.550;2024-03-23T03:38:07;15.90;;;14.25;;
32236;SDS011;18726;44.732;10.550;2024-03-23T03:41:11;17.40;;;15.27;;
32236;SDS011;18726;44.732;10.550;2024-03-23T03:44:15;14.38;;;12.15;;
32236;SDS011;18726;44.732;10.550;2024-03-23T03:47:18;16.92;;;11.85;;
32236;SDS011;18726;44.732;10.550;2024-03-23T03:50:32;17.55;;;15.57;;
32236;SDS011;18726;44.732;10.550;2024-03-23T03:53:36;14.18;;;12.73;;
32236;SDS011;18726;44.732;10.550;2024-03-23T03:56:40;16.50;;;12.27;;
32236;SDS011;18726;44.732;10.550;2024-03-23T03:59:43;14.65;;;13.07;;
32236;SDS011;18726;44.732;10.550;2024-03-23T04:02:47;16.50;;;12.48;;
32236;SDS011;18726;44.732;10.550;2024-03-23T04:05:52;15.95;;;13.40;;
32236;SDS011;18726;44.732;10.550;2024-03-23T04:08:56;16.20;;;14.30;;
32236;SDS011;18726;44.732;10.550;2024-03-23T04:11:59;20.55;;;16.17;;
32236;SDS011;18726;44.732;10.550;2024-03-23T04:15:04;20.83;;;15.98;;
32236;SDS011;18726;44.732;10.550;2024-03-23T04:18:12;21.10;;;16.58;;
32236;SDS011;18726;44.732;10.550;2024-03-23T04:21:16;18.08;;;15.57;;
32236;SDS011;18726;44.732;10.550;2024-03-23T04:24:19;17.60;;;13.82;;
32236;SDS011;18726;44.732;10.550;2024-03-23T04:27:24;19.23;;;16.85;;
32236;SDS011;18726;44.732;10.550;2024-03-23T04:31:04;19.65;;;15.98;;
32236;SDS011;18726;44.732;10.550;2024-03-23T04:34:07;18.98;;;15.07;;
32236;SDS011;18726;44.732;10.550;2024-03-23T04:37:11;21.13;;;16.75;;
32236;SDS011;18726;44.732;10.550;2024-03-23T04:40:14;21.13;;;15.85;;
32236;SDS011;18726;44.732;10.550;2024-03-23T04:43:18;20.73;;;16.52;;
32236;SDS011;18726;44.732;10.550;2024-03-23T04:46:21;17.88;;;16.10;;
32236;SDS011;18726;44.732;10.550;2024-03-23T04:49:25;19.27;;;16.73;;
32236;SDS011;18726;44.732;10.550;2024-03-23T04:52:29;20.33;;;17.60;;
32236;SDS011;18726;44.732;10.550;2024-03-23T04:55:32;24.33;;;19.33;;
32236;SDS011;18726;44.732;10.550;2024-03-23T04:58:36;20.08;;;17.85;;
32236;SDS011;18726;44.732;10.550;2024-03-23T05:01:40;25.38;;;18.42;;
32236;SDS011;18726;44.732;10.550;2024-03-23T05:04:46;19.67;;;16.48;;
32236;SDS011;18726;44.732;10.550;2024-03-23T05:07:50;24.50;;;18.35;;
32236;SDS011;18726;44.732;10.550;2024-03-23T05:10:53;17.85;;;15.25;;
32236;SDS011;18726;44.732;10.550;2024-03-23T05:13:56;18.88;;;15.90;;
32236;SDS011;18726;44.732;10.550;2024-03-23T05:17:00;18.90;;;15.18;;
32236;SDS011;18726;44.732;10.550;2024-03-23T05:20:07;18.55;;;14.70;;
32236;SDS011;18726;44.732;10.550;2024-03-23T05:23:15;18.45;;;15.82;;
32236;SDS011;18726;44.732;10.550;2024-03-23T05:26:20;19.30;;;15.70;;
32236;SDS011;18726;44.732;10.550;2024-03-23T05:33:45;28.73;;;14.18;;
32236;SDS011;18726;44.732;10.550;2024-03-23T05:36:54;18.55;;;14.50;;
32236;SDS011;18726;44.732;10.550;2024-03-23T05:40:53;23.30;;;13.73;;
32236;SDS011;18726;44.732;10.550;2024-03-23T05:44:00;16.67;;;14.55;;
32236;SDS011;18726;44.732;10.550;2024-03-23T05:47:06;19.58;;;14.63;;
32236;SDS011;18726;44.732;10.550;2024-03-23T05:50:26;16.33;;;13.43;;
32236;SDS011;18726;44.732;10.550;2024-03-23T05:53:33;13.52;;;12.18;;
32236;SDS011;18726;44.732;10.550;2024-03-23T05:56:37;17.48;;;12.60;;
32236;SDS011;18726;44.732;10.550;2024-03-23T05:59:41;20.23;;;13.18;;
32236;SDS011;18726;44.732;10.550;2024-03-23T06:02:44;16.10;;;14.45;;
32236;SDS011;18726;44.732;10.550;2024-03-23T06:05:48;15.25;;;13.60;;
32236;SDS011;18726;44.732;10.550;2024-03-23T06:08:53;11.93;;;10.75;;
32236;SDS011;18726;44.732;10.550;2024-03-23T06:11:56;15.50;;;9.82;;
32236;SDS011;18726;44.732;10.550;2024-03-23T06:15:08;13.02;;;10.45;;
32236;SDS011;18726;44.732;10.550;2024-03-23T06:27:35;11.05;;;9.73;;
32236;SDS011;18726;44.732;10.550;2024-03-23T06:31:19;12.45;;;9.30;;
32236;SDS011;18726;44.732;10.550;2024-03-23T06:34:23;9.73;;;8.85;;
32236;SDS011;18726;44.732;10.550;2024-03-23T06:37:27;10.27;;;9.23;;
32236;SDS011;18726;44.732;10.550;2024-03-23T06:40:31;12.40;;;11.07;;
32236;SDS011;18726;44.732;10.550;2024-03-23T06:47:43;13.05;;;11.48;;
32236;SDS011;18726;44.732;10.550;2024-03-23T06:50:47;15.63;;;12.02;;
32236;SDS011;18726;44.732;10.550;2024-03-23T06:53:51;14.50;;;12.02;;
32236;SDS011;18726;44.732;10.550;2024-03-23T06:56:54;21.15;;;13.55;;
32236;SDS011;18726;44.732;10.550;2024-03-23T06:59:58;14.98;;;11.60;;
32236;SDS011;18726;44.732;10.550;2024-03-23T07:03:03;14.02;;;11.60;;
32236;SDS011;18726;44.732;10.550;2024-03-23T07:06:08;14.55;;;12.77;;
32236;SDS011;18726;44.732;10.550;2024-03-23T07:09:13;15.02;;;13.55;;
32236;SDS011;18726;44.732;10.550;2024-03-23T07:12:21;16.20;;;12.93;;
32236;SDS011;18726;44.732;10.550;2024-03-23T07:15:24;13.32;;;11.85;;
32236;SDS011;18726;44.732;10.550;2024-03-23T07:18:28;13.60;;;12.05;;
32236;SDS011;18726;44.732;10.550;2024-03-23T07:21:32;15.00;;;13.05;;
32236;SDS011;18726;44.732;10.550;2024-03-23T07:24:35;13.43;;;11.88;;
32236;SDS011;18726;44.732;10.550;2024-03-23T07:27:39;14.20;;;10.63;;
32236;SDS011;18726;44.732;10.550;2024-03-23T07:30:43;18.63;;;11.73;;
32236;SDS011;18726;44.732;10.550;2024-03-23T07:33:47;14.70;;;11.45;;
32236;SDS011;18726;44.732;10.550;2024-03-23T07:36:51;14.43;;;12.48;;
32236;SDS011;18726;44.732;10.550;2024-03-23T07:39:55;12.88;;;11.18;;
32236;SDS011;18726;44.732;10.550;2024-03-23T07:42:59;14.55;;;13.02;;
32236;SDS011;18726;44.732;10.550;2024-03-23T07:46:02;12.55;;;10.50;;
32236;SDS011;18726;44.732;10.550;2024-03-23T07:49:08;13.55;;;10.32;;
32236;SDS011;18726;44.732;10.550;2024-03-23T07:52:12;17.67;;;12.40;;
32236;SDS011;18726;44.732;10.550;2024-03-23T07:55:16;13.90;;;12.40;;
32236;SDS011;18726;44.732;10.550;2024-03-23T08:03:24;14.50;;;12.35;;
32236;SDS011;18726;44.732;10.550;2024-03-23T08:10:50;10.85;;;9.55;;
32236;SDS011;18726;44.732;10.550;2024-03-23T08:13:54;12.30;;;9.77;;
32236;SDS011;18726;44.732;10.550;2024-03-23T08:16:59;13.65;;;9.75;;
32236;SDS011;18726;44.732;10.550;2024-03-23T08:20:03;11.02;;;8.90;;
32236;SDS011;18726;44.732;10.550;2024-03-23T08:23:21;13.32;;;8.60;;
32236;SDS011;18726;44.732;10.550;2024-03-23T08:26:24;19.75;;;10.93;;
32236;SDS011;18726;44.732;10.550;2024-03-23T08:29:31;10.95;;;9.80;;
32236;SDS011;18726;44.732;10.550;2024-03-23T08:32:35;12.77;;;10.23;;
32236;SDS011;18726;44.732;10.550;2024-03-23T08:35:40;9.27;;;8.20;;
32236;SDS011;18726;44.732;10.550;2024-03-23T08:38:44;9.38;;;8.48;;
32236;SDS011;18726;44.732;10.550;2024-03-23T08:41:48;11.88;;;8.55;;
32236;SDS011;18726;44.732;10.550;2024-03-23T08:44:52;8.43;;;6.72;;
32236;SDS011;18726;44.732;10.550;2024-03-23T08:47:55;12.18;;;8.32;;
32236;SDS011;18726;44.732;10.550;2024-03-23T08:51:02;8.80;;;7.75;;
32236;SDS011;18726;44.732;10.550;2024-03-23T08:54:09;9.55;;;8.27;;
32236;SDS011;18726;44.732;10.550;2024-03-23T08:57:13;9.90;;;8.07;;
32236;SDS011;18726;44.732;10.550;2024-03-23T09:00:16;10.13;;;9.13;;
32236;SDS011;18726;44.732;10.550;2024-03-23T09:03:20;9.23;;;7.22;;
32236;SDS011;18726;44.732;10.550;2024-03-23T09:06:24;10.70;;;9.70;;
32236;SDS011;18726;44.732;10.550;2024-03-23T09:09:27;9.95;;;9.07;;
32236;SDS011;18726;44.732;10.550;2024-03-23T09:12:30;11.15;;;10.23;;
32236;SDS011;18726;44.732;10.550;2024-03-23T09:15:34;9.63;;;8.73;;
32236;SDS011;18726;44.732;10.550;2024-03-23T09:18:39;10.50;;;8.80;;
32236;SDS011;18726;44.732;10.550;2024-03-23T09:26:37;14.55;;;8.95;;
32236;SDS011;18726;44.732;10.550;2024-03-23T09:29:41;11.20;;;9.23;;
32236;SDS011;18726;44.732;10.550;2024-03-23T09:32:44;8.75;;;5.13;;
32236;SDS011;18726;44.732;10.550;2024-03-23T09:35:48;4.93;;;3.67;;
32236;SDS011;18726;44.732;10.550;2024-03-23T09:38:51;5.85;;;4.07;;
32236;SDS011;18726;44.732;10.550;2024-03-23T09:41:58;10.32;;;4.38;;
32236;SDS011;18726;44.732;10.550;2024-03-23T09:45:02;7.95;;;3.47;;
32236;SDS011;18726;44.732;10.550;2024-03-23T09:48:08;7.50;;;4.30;;
32236;SDS011;18726;44.732;10.550;2024-03-23T09:51:15;9.07;;;5.28;;
32236;SDS011;18726;44.732;10.550;2024-03-23T09:54:19;8.90;;;7.78;;
32236;SDS011;18726;44.732;10.550;2024-03-23T09:57:22;10.55;;;9.20;;
32236;SDS011;18726;44.732;10.550;2024-03-23T10:00:26;9.68;;;8.70;;
32236;SDS011;18726;44.732;10.550;2024-03-23T10:03:59;14.70;;;11.52;;
32236;SDS011;18726;44.732;10.550;2024-03-23T10:07:15;13.43;;;11.95;;
32236;SDS011;18726;44.732;10.550;2024-03-23T10:10:22;18.60;;;12.85;;
32236;SDS011;18726;44.732;10.550;2024-03-23T10:13:28;15.55;;;13.85;;
32236;SDS011;18726;44.732;10.550;2024-03-23T10:16:34;14.75;;;13.10;;
32236;SDS011;18726;44.732;10.550;2024-03-23T10:19:41;21.02;;;14.50;;
32236;SDS011;18726;44.732;10.550;2024-03-23T10:22:48;19.63;;;14.38;;
32236;SDS011;18726;44.732;10.550;2024-03-23T10:25:54;19.15;;;14.68;;
32236;SDS011;18726;44.732;10.550;2024-03-23T10:28:59;20.25;;;17.08;;
32236;SDS011;18726;44.732;10.550;2024-03-23T10:32:13;25.23;;;17.20;;
32236;SDS011;18726;44.732;10.550;2024-03-23T10:35:20;22.38;;;17.13;;
32236;SDS011;18726;44.732;10.550;2024-03-23T10:38:26;21.98;;;17.17;;
32236;SDS011;18726;44.732;10.550;2024-03-23T10:41:31;20.38;;;18.05;;
32236;SDS011;18726;44.732;10.550;2024-03-23T10:44:35;20.98;;;17.67;;
32236;SDS011;18726;44.732;10.550;2024-03-23T10:47:39;20.13;;;18.10;;
32236;SDS011;18726;44.732;10.550;2024-03-23T10:50:42;25.25;;;22.63;;
32236;SDS011;18726;44.732;10.550;2024-03-23T10:53:45;26.13;;;21.63;;
32236;SDS011;18726;44.732;10.550;2024-03-23T10:56:52;35.55;;;28.38;;
32236;SDS011;18726;44.732;10.550;2024-03-23T11:00:02;30.30;;;27.00;;
32236;SDS011;18726;44.732;10.550;2024-03-23T11:06:37;38.00;;;32.17;;
32236;SDS011;18726;44.732;10.550;2024-03-23T11:09:42;119.20;;;75.60;;
32236;SDS011;18726;44.732;10.550;2024-03-23T11:12:48;101.57;;;76.70;;
32236;SDS011;18726;44.732;10.550;2024-03-23T11:15:51;136.07;;;99.78;;
32236;SDS011;18726;44.732;10.550;2024-03-23T11:19:32;74.70;;;58.67;;
32236;SDS011;18726;44.732;10.550;2024-03-23T11:25:42;89.15;;;74.82;;
32236;SDS011;18726;44.732;10.550;2024-03-23T11:28:46;119.10;;;94.68;;
32236;SDS011;18726;44.732;10.550;2024-03-23T11:31:50;64.63;;;55.05;;
32236;SDS011;18726;44.732;10.550;2024-03-23T11:34:55;51.65;;;43.83;;
32236;SDS011;18726;44.732;10.550;2024-03-23T11:38:15;57.92;;;42.88;;
32236;SDS011;18726;44.732;10.550;2024-03-23T11:41:21;50.67;;;38.83;;
32236;SDS011;18726;44.732;10.550;2024-03-23T11:44:25;24.40;;;18.60;;
32236;SDS011;18726;44.732;10.550;2024-03-23T11:47:30;15.95;;;13.55;;
32236;SDS011;18726;44.732;10.550;2024-03-23T11:50:34;20.02;;;15.25;;
32236;SDS011;18726;44.732;10.550;2024-03-23T11:53:39;13.60;;;8.18;;
32236;SDS011;18726;44.732;10.550;2024-03-23T11:56:59;15.95;;;6.93;;
32236;SDS011;18726;44.732;10.550;2024-03-23T12:03:43;8.98;;;6.00;;
32236;SDS011;18726;44.732;10.550;2024-03-23T12:06:47;11.23;;;5.32;;
32236;SDS011;18726;44.732;10.550;2024-03-23T12:10:03;13.60;;;8.90;;
32236;SDS011;18726;44.732;10.550;2024-03-23T12:13:09;9.82;;;6.68;;
32236;SDS011;18726;44.732;10.550;2024-03-23T12:16:14;7.85;;;5.97;;
32236;SDS011;18726;44.732;10.550;2024-03-23T12:19:23;22.13;;;4.63;;
32236;SDS011;18726;44.732;10.550;2024-03-23T12:22:27;35.53;;;5.78;;
32236;SDS011;18726;44.732;10.550;2024-03-23T12:25:33;9.40;;;5.00;;
32236;SDS011;18726;44.732;10.550;2024-03-23T12:28:38;9.20;;;5.10;;
32236;SDS011;18726;44.732;10.550;2024-03-23T12:31:42;6.45;;;4.45;;
32236;SDS011;18726;44.732;10.550;2024-03-23T12:34:46;7.85;;;4.88;;
32236;SDS011;18726;44.732;10.550;2024-03-23T12:37:50;10.88;;;4.28;;
32236;SDS011;18726;44.732;10.550;2024-03-23T12:40:53;6.82;;;4.63;;
32236;SDS011;18726;44.732;10.550;2024-03-23T12:43:57;5.25;;;4.10;;
32236;SDS011;18726;44.732;10.550;2024-03-23T12:47:00;13.07;;;5.32;;
32236;SDS011;18726;44.732;10.550;2024-03-23T12:50:04;8.02;;;4.55;;
32236;SDS011;18726;44.732;10.550;2024-03-23T12:53:09;6.38;;;4.68;;
32236;SDS011;18726;44.732;10.550;2024-03-23T12:56:15;9.00;;;4.20;;
32236;SDS011;18726;44.732;10.550;2024-03-23T12:59:19;5.85;;;4.10;;
32236;SDS011;18726;44.732;10.550;2024-03-23T13:02:22;8.15;;;4.53;;
32236;SDS011;18726;44.732;10.550;2024-03-23T13:05:27;7.45;;;3.80;;
32236;SDS011;18726;44.732;10.550;2024-03-23T13:08:30;6.13;;;3.35;;
32236;SDS011;18726;44.732;10.550;2024-03-23T13:11:33;9.65;;;6.90;;
32236;SDS011;18726;44.732;10.550;2024-03-23T13:14:37;10.18;;;6.03;;
32236;SDS011;18726;44.732;10.550;2024-03-23T13:17:40;9.32;;;4.80;;
32236;SDS011;18726;44.732;10.550;2024-03-23T13:20:44;6.53;;;4.38;;
32236;SDS011;18726;44.732;10.550;2024-03-23T13:23:47;9.45;;;4.82;;
32236;SDS011;18726;44.732;10.550;2024-03-23T13:26:54;5.82;;;3.85;;
32236;SDS011;18726;44.732;10.550;2024-03-23T13:29:57;6.30;;;4.25;;
32236;SDS011;18726;44.732;10.550;2024-03-23T13:33:00;6.00;;;4.30;;
32236;SDS011;18726;44.732;10.550;2024-03-23T13:36:04;5.13;;;3.65;;
32236;SDS011;18726;44.732;10.550;2024-03-23T13:39:08;4.07;;;2.78;;
32236;SDS011;18726;44.732;10.550;2024-03-23T13:42:14;7.03;;;3.00;;
32236;SDS011;18726;44.732;10.550;2024-03-23T13:45:19;5.00;;;2.85;;
32236;SDS011;18726;44.732;10.550;2024-03-23T13:48:23;4.15;;;2.72;;
32236;SDS011;18726;44.732;10.550;2024-03-23T13:51:27;4.90;;;3.00;;
32236;SDS011;18726;44.732;10.550;2024-03-23T13:54:30;4.15;;;2.40;;
32236;SDS011;18726;44.732;10.550;2024-03-23T13:57:34;4.18;;;2.85;;
32236;SDS011;18726;44.732;10.550;2024-03-23T14:00:38;8.27;;;3.00;;
32236;SDS011;18726;44.732;10.550;2024-03-23T14:03:42;4.22;;;3.17;;
32236;SDS011;18726;44.732;10.550;2024-03-23T14:06:46;4.80;;;2.60;;
32236;SDS011;18726;44.732;10.550;2024-03-23T14:09:50;6.88;;;3.15;;
32236;SDS011;18726;44.732;10.550;2024-03-23T14:12:57;4.15;;;2.97;;
32236;SDS011;18726;44.732;10.550;2024-03-23T14:16:03;5.28;;;3.15;;
32236;SDS011;18726;44.732;10.550;2024-03-23T14:19:07;7.95;;;3.65;;
32236;SDS011;18726;44.732;10.550;2024-03-23T14:22:10;7.63;;;3.72;;
32236;SDS011;18726;44.732;10.550;2024-03-23T14:25:14;11.63;;;4.13;;
32236;SDS011;18726;44.732;10.550;2024-03-23T14:28:17;9.73;;;4.60;;
32236;SDS011;18726;44.732;10.550;2024-03-23T14:31:21;6.28;;;4.32;;
32236;SDS011;18726;44.732;10.550;2024-03-23T14:34:25;9.30;;;4.30;;
32236;SDS011;18726;44.732;10.550;2024-03-23T14:37:31;9.93;;;3.90;;
32236;SDS011;18726;44.732;10.550;2024-03-23T14:40:34;7.05;;;3.88;;
32236;SDS011;18726;44.732;10.550;2024-03-23T14:43:38;7.55;;;4.13;;
32236;SDS011;18726;44.732;10.550;2024-03-23T14:46:41;15.65;;;4.00;;
32236;SDS011;18726;44.732;10.550;2024-03-23T14:49:46;5.88;;;3.90;;
32236;SDS011;18726;44.732;10.550;2024-03-23T14:52:53;15.10;;;4.35;;
32236;SDS011;18726;44.732;10.550;2024-03-23T15:00:30;8.13;;;4.50;;
32236;SDS011;18726;44.732;10.550;2024-03-23T15:03:34;5.88;;;3.55;;
32236;SDS011;18726;44.732;10.550;2024-03-23T15:06:37;10.43;;;4.22;;
32236;SDS011;18726;44.732;10.550;2024-03-23T15:09:40;5.72;;;3.15;;
32236;SDS011;18726;44.732;10.550;2024-03-23T15:12:44;9.15;;;3.25;;
32236;SDS011;18726;44.732;10.550;2024-03-23T15:15:47;8.73;;;3.33;;
32236;SDS011;18726;44.732;10.550;2024-03-23T15:18:52;5.82;;;2.85;;
32236;SDS011;18726;44.732;10.550;2024-03-23T15:21:55;3.33;;;3.00;;
32236;SDS011;18726;44.732;10.550;2024-03-23T15:25:00;5.47;;;2.88;;
32236;SDS011;18726;44.732;10.550;2024-03-23T15:28:03;6.47;;;3.05;;
32236;SDS011;18726;44.732;10.550;2024-03-23T15:31:08;8.40;;;2.90;;
32236;SDS011;18726;44.732;10.550;2024-03-23T15:34:15;7.28;;;3.17;;
32236;SDS011;18726;44.732;10.550;2024-03-23T15:37:18;8.50;;;3.50;;
32236;SDS011;18726;44.732;10.550;2024-03-23T15:40:22;7.93;;;3.20;;
32236;SDS011;18726;44.732;10.550;2024-03-23T15:43:25;13.73;;;3.55;;
32236;SDS011;18726;44.732;10.550;2024-03-23T15:46:30;14.55;;;3.30;;
32236;SDS011;18726;44.732;10.550;2024-03-23T15:49:34;7.53;;;3.90;;
32236;SDS011;18726;44.732;10.550;2024-03-23T15:52:37;14.07;;;5.68;;
32236;SDS011;18726;44.732;10.550;2024-03-23T15:55:41;11.75;;;5.55;;
32236;SDS011;18726;44.732;10.550;2024-03-23T15:58:44;12.18;;;3.15;;
32236;SDS011;18726;44.732;10.550;2024-03-23T16:01:49;5.10;;;3.67;;
32236;SDS011;18726;44.732;10.550;2024-03-23T16:04:53;5.95;;;3.25;;
32236;SDS011;18726;44.732;10.550;2024-03-23T16:07:58;11.68;;;4.68;;
32236;SDS011;18726;44.732;10.550;2024-03-23T16:11:06;11.35;;;4.28;;
32236;SDS011;18726;44.732;10.550;2024-03-23T16:14:10;6.72;;;3.95;;
32236;SDS011;18726;44.732;10.550;2024-03-23T16:17:14;8.95;;;4.07;;
32236;SDS011;18726;44.732;10.550;2024-03-23T16:20:18;8.55;;;4.82;;
32236;SDS011;18726;44.732;10.550;2024-03-23T16:23:22;7.65;;;3.90;;
32236;SDS011;18726;44.732;10.550;2024-03-23T16:26:27;7.38;;;4.03;;
32236;SDS011;18726;44.732;10.550;2024-03-23T16:29:30;11.50;;;4.80;;
32236;SDS011;18726;44.732;10.550;2024-03-23T16:32:36;8.68;;;4.30;;
32236;SDS011;18726;44.732;10.550;2024-03-23T16:35:42;7.95;;;3.50;;
32236;SDS011;18726;44.732;10.550;2024-03-23T16:38:46;9.50;;;4.00;;
32236;SDS011;18726;44.732;10.550;2024-03-23T16:41:57;7.32;;;4.00;;
32236;SDS011;18726;44.732;10.550;2024-03-23T16:45:01;12.25;;;3.92;;
32236;SDS011;18726;44.732;10.550;2024-03-23T16:48:06;11.50;;;4.25;;
32236;SDS011;18726;44.732;10.550;2024-03-23T16:51:11;9.40;;;4.55;;
32236;SDS011;18726;44.732;10.550;2024-03-23T16:54:15;5.93;;;4.28;;
32236;SDS011;18726;44.732;10.550;2024-03-23T16:57:19;9.00;;;6.97;;
32236;SDS011;18726;44.732;10.550;2024-03-23T17:00:22;13.32;;;7.93;;
32236;SDS011;18726;44.732;10.550;2024-03-23T17:03:25;15.00;;;5.22;;
32236;SDS011;18726;44.732;10.550;2024-03-23T17:06:29;7.60;;;5.18;;
32236;SDS011;18726;44.732;10.550;2024-03-23T17:09:33;7.47;;;4.88;;
32236;SDS011;18726;44.732;10.550;2024-03-23T17:12:37;14.00;;;4.78;;
32236;SDS011;18726;44.732;10.550;2024-03-23T17:15:44;11.82;;;4.90;;
32236;SDS011;18726;44.732;10.550;2024-03-23T17:18:51;23.30;;;19.05;;
32236;SDS011;18726;44.732;10.550;2024-03-23T17:21:55;21.05;;;18.83;;
32236;SDS011;18726;44.732;10.550;2024-03-23T17:24:59;20.33;;;14.02;;
32236;SDS011;18726;44.732;10.550;2024-03-23T17:28:07;53.25;;;36.35;;
32236;SDS011;18726;44.732;10.550;2024-03-23T17:31:18;29.92;;;21.70;;
32236;SDS011;18726;44.732;10.550;2024-03-23T17:34:23;16.95;;;9.13;;
32236;SDS011;18726;44.732;10.550;2024-03-23T17:37:38;11.20;;;5.28;;
32236;SDS011;18726;44.732;10.550;2024-03-23T17:40:51;7.45;;;6.30;;
32236;SDS011;18726;44.732;10.550;2024-03-23T17:44:02;9.48;;;5.65;;
32236;SDS011;18726;44.732;10.550;2024-03-23T17:47:06;10.05;;;5.03;;
32236;SDS011;18726;44.732;10.550;2024-03-23T17:50:22;12.43;;;5.65;;
32236;SDS011;18726;44.732;10.550;2024-03-23T17:53:39;6.40;;;5.28;;
32236;SDS011;18726;44.732;10.550;2024-03-23T17:56:43;9.27;;;6.00;;
32236;SDS011;18726;44.732;10.550;2024-03-23T17:59:50;12.07;;;6.05;;
32236;SDS011;18726;44.732;10.550;2024-03-23T18:03:01;6.70;;;5.65;;
32236;SDS011;18726;44.732;10.550;2024-03-23T18:06:15;6.28;;;5.65;;
32236;SDS011;18726;44.732;10.550;2024-03-23T18:09:20;9.38;;;6.47;;
32236;SDS011;18726;44.732;10.550;2024-03-23T18:15:57;10.98;;;6.28;;
32236;SDS011;18726;44.732;10.550;2024-03-23T18:19:00;8.10;;;5.90;;
32236;SDS011;18726;44.732;10.550;2024-03-23T18:22:04;11.27;;;6.57;;
32236;SDS011;18726;44.732;10.550;2024-03-23T18:25:07;12.02;;;6.80;;
32236;SDS011;18726;44.732;10.550;2024-03-23T18:28:11;9.98;;;6.30;;
32236;SDS011;18726;44.732;10.550;2024-03-23T18:31:15;12.00;;;6.65;;
32236;SDS011;18726;44.732;10.550;2024-03-23T18:34:19;19.95;;;7.13;;
32236;SDS011;18726;44.732;10.550;2024-03-23T18:37:23;12.05;;;7.82;;
32236;SDS011;18726;44.732;10.550;2024-03-23T18:40:27;10.95;;;7.47;;
32236;SDS011;18726;44.732;10.550;2024-03-23T18:43:31;13.07;;;7.00;;
32236;SDS011;18726;44.732;10.550;2024-03-23T18:46:35;9.35;;;7.07;;
32236;SDS011;18726;44.732;10.550;2024-03-23T18:49:40;11.75;;;7.38;;
32236;SDS011;18726;44.732;10.550;2024-03-23T18:52:43;9.57;;;7.43;;
32236;SDS011;18726;44.732;10.550;2024-03-23T18:55:51;10.75;;;7.22;;
32236;SDS011;18726;44.732;10.550;2024-03-23T18:58:56;9.90;;;7.53;;
32236;SDS011;18726;44.732;10.550;2024-03-23T19:01:59;14.90;;;8.35;;
32236;SDS011;18726;44.732;10.550;2024-03-23T19:05:03;13.90;;;7.55;;
32236;SDS011;18726;44.732;10.550;2024-03-23T19:08:06;11.43;;;7.53;;
32236;SDS011;18726;44.732;10.550;2024-03-23T19:11:10;12.23;;;6.97;;
32236;SDS011;18726;44.732;10.550;2024-03-23T19:14:14;12.68;;;6.95;;
32236;SDS011;18726;44.732;10.550;2024-03-23T19:17:21;10.65;;;7.32;;
32236;SDS011;18726;44.732;10.550;2024-03-23T19:20:29;13.93;;;8.60;;
32236;SDS011;18726;44.732;10.550;2024-03-23T19:23:39;9.20;;;7.82;;
32236;SDS011;18726;44.732;10.550;2024-03-23T19:26:44;11.38;;;7.75;;
32236;SDS011;18726;44.732;10.550;2024-03-23T19:29:48;9.32;;;7.57;;
32236;SDS011;18726;44.732;10.550;2024-03-23T19:32:53;8.15;;;6.88;;
32236;SDS011;18726;44.732;10.550;2024-03-23T19:35:58;14.02;;;7.10;;
32236;SDS011;18726;44.732;10.550;2024-03-23T19:39:03;9.95;;;6.68;;
32236;SDS011;18726;44.732;10.550;2024-03-23T19:42:06;11.77;;;6.38;;
32236;SDS011;18726;44.732;10.550;2024-03-23T19:45:11;9.43;;;6.13;;
32236;SDS011;18726;44.732;10.550;2024-03-23T19:48:15;12.82;;;7.07;;
32236;SDS011;18726;44.732;10.550;2024-03-23T19:51:18;13.43;;;6.40;;
32236;SDS011;18726;44.732;10.550;2024-03-23T19:54:22;17.80;;;7.43;;
32236;SDS011;18726;44.732;10.550;2024-03-23T19:57:25;14.18;;;7.35;;
32236;SDS011;18726;44.732;10.550;2024-03-23T20:00:29;11.43;;;7.07;;
32236;SDS011;18726;44.732;10.550;2024-03-23T20:03:33;11.18;;;6.65;;
32236;SDS011;18726;44.732;10.550;2024-03-23T20:06:37;13.38;;;7.68;;